createdAt,value
2022-10-18T00:00:06.318Z,11.70
2022-10-18T00:02:33.234Z,11.30
2022-10-18T00:04:59.942Z,11.50
2022-10-18T00:07:26.650Z,11.30
2022-10-18T00:09:53.322Z,11.30
2022-10-18T00:12:20.029Z,11.30
2022-10-18T00:14:50.748Z,11.30
2022-10-18T00:17:17.630Z,11.30
2022-10-18T00:19:44.524Z,11.30
2022-10-18T00:22:11.238Z,11.20
2022-10-18T00:24:37.986Z,11.50
2022-10-18T00:27:04.698Z,11.30
2022-10-18T00:29:31.400Z,11.00
2022-10-18T00:31:58.083Z,11.00
2022-10-18T00:34:24.898Z,10.90
2022-10-18T00:36:51.657Z,11.00
2022-10-18T00:39:20.700Z,11.10
2022-10-18T00:41:47.773Z,11.20
2022-10-18T00:44:17.170Z,10.90
2022-10-18T00:46:46.766Z,10.80
2022-10-18T00:49:13.427Z,10.80
2022-10-18T00:51:44.931Z,10.70
2022-10-18T00:54:13.284Z,10.70
2022-10-18T00:56:40.035Z,10.80
2022-10-18T00:59:07.785Z,10.50
2022-10-18T01:01:34.505Z,10.70
2022-10-18T01:04:01.235Z,10.50
2022-10-18T01:06:28.863Z,10.50
2022-10-18T01:09:13.802Z,10.70
2022-10-18T01:12:05.249Z,10.60
2022-10-18T01:14:48.085Z,10.60
2022-10-18T01:17:24.218Z,10.70
2022-10-18T01:19:53.917Z,10.60
2022-10-18T01:22:37.797Z,10.60
2022-10-18T01:25:17.470Z,10.50
2022-10-18T01:40:12.394Z,10.40
2022-10-18T01:42:39.958Z,10.30
2022-10-18T01:45:08.100Z,10.30
2022-10-18T02:00:23.919Z,10.20
2022-10-18T02:03:04.954Z,10.10
2022-10-18T02:05:40.387Z,10.20
2022-10-18T02:08:24.014Z,10.10
2022-10-18T02:10:53.694Z,10.10
2022-10-18T02:13:23.637Z,10.10
2022-10-18T02:15:56.334Z,10.10
2022-10-18T02:18:28.352Z,10.10
2022-10-18T02:20:56.422Z,10.10
2022-10-18T02:23:25.310Z,10.00
2022-10-18T02:25:53.144Z,10.00
2022-10-18T02:28:20.366Z,10.00
2022-10-18T02:30:56.155Z,10.10
2022-10-18T02:33:53.640Z,10.20
2022-10-18T02:36:31.588Z,10.00
2022-10-18T02:39:04.663Z,10.10
2022-10-18T02:41:32.141Z,10.30
2022-10-18T02:43:58.796Z,10.10
2022-10-18T02:48:57.039Z,10.10
2022-10-18T02:51:24.839Z,10.10
2022-10-18T02:53:51.533Z,10.20
2022-10-18T02:56:18.171Z,10.20
2022-10-18T02:58:44.828Z,10.20
2022-10-18T03:01:11.542Z,10.20
2022-10-18T03:03:38.247Z,11.20
2022-10-18T03:06:05.320Z,10.30
2022-10-18T03:08:31.978Z,10.20
2022-10-18T03:10:58.660Z,10.20
2022-10-18T03:13:25.409Z,10.20
2022-10-18T03:15:52.118Z,10.30
2022-10-18T03:18:18.839Z,10.40
2022-10-18T03:20:45.477Z,10.30
2022-10-18T03:23:12.285Z,10.30
2022-10-18T03:25:41.608Z,10.40
2022-10-18T03:28:11.245Z,10.40
2022-10-18T03:30:38.939Z,10.50
2022-10-18T03:33:06.456Z,10.50
2022-10-18T03:35:33.175Z,10.50
2022-10-18T03:37:59.905Z,10.60
2022-10-18T03:40:26.601Z,10.90
2022-10-18T03:42:53.249Z,10.70
2022-10-18T03:45:19.921Z,10.80
2022-10-18T03:47:46.606Z,10.80
2022-10-18T03:50:13.317Z,10.90
2022-10-18T03:52:40.081Z,10.80
2022-10-18T03:55:07.369Z,10.90
2022-10-18T03:57:34.009Z,10.90
2022-10-18T04:00:00.655Z,11.00
2022-10-18T04:02:27.584Z,10.90
2022-10-18T04:04:54.259Z,10.90
2022-10-18T04:07:20.925Z,10.90
2022-10-18T04:09:47.562Z,10.90
2022-10-18T04:12:14.271Z,10.90
2022-10-18T04:14:40.928Z,10.90
2022-10-18T04:17:08.393Z,10.90
2022-10-18T04:19:35.062Z,11.00
2022-10-18T04:22:01.860Z,10.90
2022-10-18T04:24:28.617Z,10.80
2022-10-18T04:26:55.495Z,10.80
2022-10-18T04:29:22.313Z,10.90
2022-10-18T04:31:49.071Z,10.80
2022-10-18T04:34:15.770Z,10.90
2022-10-18T04:36:42.446Z,10.80
2022-10-18T04:39:09.142Z,10.90
2022-10-18T04:41:36.200Z,10.90
2022-10-18T04:44:02.885Z,10.90
2022-10-18T04:46:29.775Z,11.00
2022-10-18T04:48:56.651Z,11.20
2022-10-18T04:51:23.294Z,11.00
2022-10-18T04:53:49.952Z,11.00
2022-10-18T04:56:16.703Z,11.10
2022-10-18T04:58:43.370Z,11.10
2022-10-18T05:01:10.288Z,11.10
2022-10-18T05:03:37.016Z,11.00
2022-10-18T05:06:03.943Z,11.20
2022-10-18T05:08:32.187Z,11.20
2022-10-18T05:10:59.723Z,11.30
2022-10-18T05:13:27.010Z,11.30
2022-10-18T05:15:53.714Z,11.30
2022-10-18T05:18:20.493Z,11.40
2022-10-18T05:20:47.401Z,11.40
2022-10-18T05:23:14.051Z,11.40
2022-10-18T05:25:44.476Z,11.40
2022-10-18T05:28:34.653Z,11.40
2022-10-18T05:31:09.119Z,11.50
2022-10-18T05:33:36.304Z,11.50
2022-10-18T05:36:03.699Z,11.50
2022-10-18T05:38:31.127Z,11.40
2022-10-18T05:40:58.910Z,11.50
2022-10-18T05:43:28.983Z,11.50
2022-10-18T05:45:56.081Z,11.50
2022-10-18T05:48:22.792Z,11.50
2022-10-18T05:50:49.449Z,11.50
2022-10-18T05:53:35.637Z,11.60
2022-10-18T05:56:03.512Z,11.60
2022-10-18T05:58:30.230Z,11.70
2022-10-18T06:01:01.317Z,11.70
2022-10-18T06:03:28.395Z,11.70
2022-10-18T06:06:03.449Z,11.80
2022-10-18T06:08:30.502Z,11.80
2022-10-18T06:10:57.318Z,11.90
2022-10-18T06:13:24.174Z,11.90
2022-10-18T06:15:50.863Z,12.00
2022-10-18T06:18:17.522Z,12.00
2022-10-18T06:20:44.208Z,12.10
2022-10-18T06:23:10.877Z,12.10
2022-10-18T06:25:37.513Z,12.20
2022-10-18T06:28:07.795Z,12.20
2022-10-18T06:30:37.068Z,12.20
2022-10-18T06:33:03.952Z,12.30
2022-10-18T06:35:30.588Z,12.30
2022-10-18T06:37:57.763Z,12.40
2022-10-18T06:40:24.799Z,12.40
2022-10-18T06:43:00.308Z,12.00
2022-10-18T06:45:27.362Z,12.50
2022-10-18T06:47:54.037Z,12.60
2022-10-18T06:50:20.670Z,12.70
2022-10-18T06:52:48.866Z,12.80
2022-10-18T06:55:15.554Z,12.90
2022-10-18T06:57:42.303Z,13.00
2022-10-18T07:00:09.568Z,13.10
2022-10-18T07:02:37.449Z,13.20
2022-10-18T07:05:04.258Z,13.30
2022-10-18T07:07:32.007Z,13.50
2022-10-18T07:09:58.870Z,13.70
2022-10-18T07:12:25.556Z,13.80
2022-10-18T07:14:52.295Z,14.10
2022-10-18T07:17:19.207Z,14.30
2022-10-18T07:19:45.852Z,14.40
2022-10-18T07:22:12.620Z,15.00
2022-10-18T07:24:39.436Z,16.00
2022-10-18T07:27:06.094Z,17.40
2022-10-18T07:29:33.709Z,18.70
2022-10-18T07:32:00.371Z,20.00
2022-10-18T07:34:28.893Z,21.10
2022-10-18T07:36:55.631Z,21.80
2022-10-18T07:39:22.383Z,22.50
2022-10-18T07:41:49.130Z,22.70
2022-10-18T07:44:15.876Z,22.90
2022-10-18T07:46:42.606Z,23.30
2022-10-18T07:49:09.258Z,23.00
2022-10-18T07:51:36.183Z,22.50
2022-10-18T07:54:03.089Z,21.80
2022-10-18T07:56:29.796Z,21.20
2022-10-18T07:58:57.027Z,20.80
2022-10-18T08:01:25.069Z,20.50
2022-10-18T08:03:53.538Z,20.20
2022-10-18T08:06:22.586Z,19.80
2022-10-18T08:08:49.255Z,19.60
2022-10-18T08:11:21.870Z,19.70
2022-10-18T08:13:48.997Z,19.90
2022-10-18T08:16:19.212Z,20.10
2022-10-18T08:18:46.218Z,21.10
2022-10-18T08:21:14.626Z,22.60
2022-10-18T08:23:42.219Z,24.30
2022-10-18T08:26:12.271Z,24.80
2022-10-18T08:28:39.417Z,26.00
2022-10-18T08:31:08.287Z,27.30
2022-10-18T08:33:36.323Z,28.20
2022-10-18T08:36:05.959Z,28.10
2022-10-18T08:38:38.019Z,28.90
2022-10-18T08:41:42.562Z,29.60
2022-10-18T08:44:30.337Z,28.70
2022-10-18T08:47:11.963Z,28.10
2022-10-18T08:49:47.102Z,27.50
2022-10-18T08:52:54.682Z,27.00
2022-10-18T08:55:45.119Z,26.00
2022-10-18T08:58:22.192Z,25.00
2022-10-18T09:01:06.722Z,24.10
2022-10-18T09:03:50.198Z,23.30
2022-10-18T09:06:25.678Z,22.60
2022-10-18T09:09:24.291Z,21.80
2022-10-18T09:12:20.393Z,21.40
2022-10-18T09:15:08.781Z,21.00
2022-10-18T09:18:17.320Z,21.10
2022-10-18T09:21:15.973Z,21.00
2022-10-18T09:23:50.401Z,21.10
2022-10-18T09:26:22.475Z,21.00
2022-10-18T09:31:56.494Z,20.70
2022-10-18T09:34:37.233Z,20.50
2022-10-18T09:37:04.315Z,20.30
2022-10-18T09:39:40.914Z,20.20
2022-10-18T09:42:16.849Z,20.00
2022-10-18T09:45:15.609Z,19.90
2022-10-18T09:47:47.637Z,19.80
2022-10-18T09:50:54.806Z,19.70
2022-10-18T09:53:37.476Z,19.40
2022-10-18T09:56:12.588Z,19.20
2022-10-18T09:58:42.460Z,19.10
2022-10-18T10:01:11.586Z,19.10
2022-10-18T10:03:38.784Z,19.10
2022-10-18T10:06:11.655Z,19.00
2022-10-18T10:08:42.907Z,18.90
2022-10-18T10:11:31.954Z,18.80
2022-10-18T10:14:13.389Z,18.60
2022-10-18T10:16:54.399Z,18.50
2022-10-18T10:19:39.598Z,18.20
2022-10-18T10:22:10.413Z,18.10
2022-10-18T10:24:53.001Z,17.90
2022-10-18T10:27:46.209Z,17.80
2022-10-18T10:30:34.396Z,17.80
2022-10-18T10:33:03.359Z,17.70
2022-10-18T10:35:53.061Z,17.80
2022-10-18T10:38:25.948Z,17.80
2022-10-18T10:40:53.109Z,17.90
2022-10-18T10:43:43.532Z,18.00
2022-10-18T10:46:13.929Z,18.30
2022-10-18T10:49:08.438Z,18.90
2022-10-18T10:51:43.513Z,19.20
2022-10-18T10:54:20.408Z,19.90
2022-10-18T10:57:19.613Z,20.50
2022-10-18T10:59:59.669Z,20.90
2022-10-18T11:02:30.930Z,20.90
2022-10-18T11:05:21.577Z,20.80
2022-10-18T11:07:49.065Z,20.70
2022-10-18T11:10:19.352Z,20.50
2022-10-18T11:12:49.284Z,20.60
2022-10-18T11:15:32.630Z,20.80
2022-10-18T11:18:20.610Z,21.00
2022-10-18T11:21:01.203Z,21.20
2022-10-18T11:23:32.082Z,21.30
2022-10-18T11:26:10.757Z,21.30
2022-10-18T11:28:58.034Z,21.00
2022-10-18T11:31:32.525Z,20.80
2022-10-18T11:34:21.230Z,20.70
2022-10-18T11:37:26.671Z,20.50
2022-10-18T11:39:52.597Z,20.50
2022-10-18T11:42:47.993Z,20.10
2022-10-18T11:45:39.726Z,20.00
2022-10-18T11:48:34.172Z,20.00
2022-10-18T11:51:29.746Z,20.00
2022-10-18T11:54:22.577Z,20.20
2022-10-18T11:57:07.687Z,20.60
2022-10-18T12:00:16.475Z,21.00
2022-10-18T12:03:20.344Z,21.20
2022-10-18T12:05:50.062Z,21.30
2022-10-18T12:08:20.532Z,21.20
2022-10-18T12:11:09.733Z,21.30
2022-10-18T12:13:52.629Z,21.20
2022-10-18T12:16:38.908Z,21.10
2022-10-18T12:19:35.890Z,20.90
2022-10-18T12:22:14.730Z,20.20
2022-10-18T12:24:42.947Z,20.50
2022-10-18T12:27:13.582Z,20.50
2022-10-18T12:29:45.377Z,20.50
2022-10-18T12:32:18.278Z,20.50
2022-10-18T12:34:56.797Z,20.50
2022-10-18T12:37:35.336Z,20.40
2022-10-18T12:40:18.271Z,20.30
2022-10-18T12:42:49.260Z,20.00
2022-10-18T12:45:35.016Z,19.90
2022-10-18T12:48:06.859Z,19.70
2022-10-18T12:50:39.160Z,19.60
2022-10-18T12:53:14.917Z,19.60
2022-10-18T12:58:15.683Z,19.80
2022-10-18T13:00:42.336Z,19.90
2022-10-18T13:03:41.041Z,20.10
2022-10-18T13:06:07.866Z,20.40
2022-10-18T13:08:42.052Z,20.50
2022-10-18T13:11:11.010Z,20.60
2022-10-18T13:13:56.257Z,20.40
2022-10-18T13:16:23.011Z,20.20
2022-10-18T13:18:57.696Z,19.90
2022-10-18T13:21:41.185Z,19.80
2022-10-18T13:24:31.038Z,19.60
2022-10-18T13:27:41.075Z,19.30
2022-10-18T13:30:32.322Z,19.20
2022-10-18T13:33:33.256Z,19.00
2022-10-18T13:35:59.916Z,18.80
2022-10-18T13:38:35.501Z,18.70
2022-10-18T13:41:14.576Z,18.60
2022-10-18T13:43:53.466Z,18.70
2022-10-18T13:46:33.046Z,18.50
2022-10-18T13:49:24.250Z,18.50
2022-10-18T13:52:19.318Z,18.00
2022-10-18T13:54:59.661Z,18.80
2022-10-18T13:57:50.399Z,19.00
2022-10-18T14:00:51.607Z,19.10
2022-10-18T14:06:32.666Z,19.30
2022-10-18T14:09:13.913Z,19.40
2022-10-18T14:12:01.400Z,19.40
2022-10-18T14:14:30.365Z,19.50
2022-10-18T14:17:04.471Z,19.60
2022-10-18T14:19:39.718Z,19.60
2022-10-18T14:22:20.834Z,19.60
2022-10-18T14:24:53.960Z,19.40
2022-10-18T14:27:23.678Z,19.40
2022-10-18T14:30:12.540Z,19.20
2022-10-18T14:32:47.398Z,19.10
2022-10-18T14:35:33.967Z,19.10
2022-10-18T14:38:02.182Z,19.00
2022-10-18T14:40:40.598Z,19.00
2022-10-18T14:43:15.424Z,18.90
2022-10-18T14:45:42.865Z,18.90
2022-10-18T14:48:18.234Z,18.80
2022-10-18T14:50:48.733Z,18.70
2022-10-18T14:53:18.794Z,18.70
2022-10-18T14:55:54.846Z,18.60
2022-10-18T14:58:22.429Z,18.50
2022-10-18T15:00:49.292Z,18.60
2022-10-18T15:03:17.704Z,18.50
2022-10-18T15:06:02.641Z,18.40
2022-10-18T15:08:40.995Z,18.50
2022-10-18T15:11:11.874Z,18.50
2022-10-18T15:14:08.867Z,18.40
2022-10-18T15:16:38.749Z,18.40
2022-10-18T15:19:28.621Z,18.40
2022-10-18T15:25:09.992Z,18.20
2022-10-18T15:27:39.104Z,18.10
2022-10-18T15:30:29.278Z,17.90
2022-10-18T15:33:01.654Z,17.80
2022-10-18T15:35:35.322Z,17.60
2022-10-18T15:38:16.989Z,17.40
2022-10-18T15:40:44.187Z,17.30
2022-10-18T15:43:37.075Z,17.30
2022-10-18T15:46:06.554Z,17.00
2022-10-18T15:48:37.012Z,16.90
2022-10-18T15:51:07.431Z,16.80
2022-10-18T15:54:16.641Z,16.70
2022-10-18T15:56:44.621Z,16.90
2022-10-18T15:59:26.274Z,16.60
2022-10-18T16:01:53.318Z,16.50
2022-10-18T16:04:26.594Z,16.60
2022-10-18T16:06:55.481Z,16.50
2022-10-18T16:09:24.630Z,16.50
2022-10-18T16:11:56.390Z,16.40
2022-10-18T16:14:24.568Z,16.90
2022-10-18T16:17:05.852Z,16.40
2022-10-18T16:19:33.316Z,16.80
2022-10-18T16:22:05.983Z,16.30
2022-10-18T16:24:33.513Z,16.30
2022-10-18T16:27:00.377Z,16.30
2022-10-18T16:29:31.963Z,16.20
2022-10-18T16:31:59.971Z,16.20
2022-10-18T16:34:27.479Z,16.10
2022-10-18T16:36:55.045Z,16.10
2022-10-18T16:39:23.244Z,16.10
2022-10-18T16:41:51.370Z,16.00
2022-10-18T16:44:19.354Z,15.90
2022-10-18T16:46:50.868Z,15.90
2022-10-18T16:49:23.890Z,15.90
2022-10-18T16:51:52.844Z,15.90
2022-10-18T16:54:20.382Z,15.80
2022-10-18T16:56:50.283Z,15.80
2022-10-18T16:59:37.331Z,15.80
2022-10-18T17:02:08.925Z,15.80
2022-10-18T17:04:35.756Z,16.10
2022-10-18T17:07:03.427Z,15.80
2022-10-18T17:09:30.194Z,15.70
2022-10-18T17:11:56.934Z,15.70
2022-10-18T17:14:23.618Z,15.60
2022-10-18T17:16:54.678Z,15.60
2022-10-18T17:19:24.003Z,15.60
2022-10-18T17:21:50.671Z,15.70
2022-10-18T17:24:17.325Z,15.50
2022-10-18T17:26:44.069Z,15.60
2022-10-18T17:29:10.818Z,15.40
2022-10-18T17:31:37.678Z,15.30
2022-10-18T17:34:04.479Z,15.40
2022-10-18T17:36:32.602Z,15.40
2022-10-18T17:38:59.591Z,15.30
2022-10-18T17:41:26.725Z,15.10
2022-10-18T17:43:53.426Z,15.00
2022-10-18T17:46:20.334Z,15.00
2022-10-18T17:48:47.243Z,14.80
2022-10-18T17:51:16.572Z,14.60
2022-10-18T17:53:43.747Z,15.30
2022-10-18T17:56:11.915Z,14.50
2022-10-18T17:58:38.650Z,14.40
2022-10-18T18:01:12.332Z,14.40
2022-10-18T18:03:39.545Z,14.30
2022-10-18T18:06:34.045Z,14.20
2022-10-18T18:09:12.988Z,14.20
2022-10-18T18:11:41.274Z,14.20
2022-10-18T18:14:09.557Z,14.20
2022-10-18T18:16:38.249Z,14.30
2022-10-18T18:19:09.635Z,14.10
2022-10-18T18:21:37.347Z,14.00
2022-10-18T18:24:04.925Z,14.00
2022-10-18T18:26:33.516Z,13.90
2022-10-18T18:31:30.790Z,13.80
2022-10-18T18:34:01.253Z,13.70
2022-10-18T18:36:32.538Z,13.60
2022-10-18T18:38:59.668Z,13.50
2022-10-18T18:41:28.418Z,13.50
2022-10-18T18:44:06.493Z,13.70
2022-10-18T18:46:37.079Z,13.40
2022-10-18T18:49:04.216Z,13.40
2022-10-18T18:51:32.737Z,13.40
2022-10-18T18:54:00.006Z,13.40
2022-10-18T18:56:29.063Z,13.50
2022-10-18T18:58:58.671Z,13.20
2022-10-18T19:01:31.641Z,13.20
2022-10-18T19:03:59.277Z,13.60
2022-10-18T19:06:56.430Z,13.20
2022-10-18T19:09:23.848Z,13.20
2022-10-18T19:11:53.295Z,13.20
2022-10-18T19:16:48.381Z,13.50
2022-10-18T19:19:18.272Z,13.20
2022-10-18T19:21:48.133Z,13.60
2022-10-18T19:24:15.297Z,13.20
2022-10-18T19:26:48.080Z,13.10
2022-10-18T19:29:16.432Z,13.00
2022-10-18T19:31:43.745Z,13.00
2022-10-18T19:34:12.556Z,13.00
2022-10-18T19:36:40.430Z,12.90
2022-10-18T19:39:09.318Z,12.80
2022-10-18T19:41:36.144Z,13.00
2022-10-18T19:44:02.942Z,13.00
2022-10-18T19:46:29.630Z,12.90
2022-10-18T19:48:56.298Z,13.00
2022-10-18T19:51:26.806Z,13.10
2022-10-18T19:53:55.556Z,13.70
2022-10-18T19:56:24.503Z,12.90
2022-10-18T19:58:51.741Z,13.50
2022-10-18T20:01:19.660Z,13.60
2022-10-18T20:03:47.413Z,13.00
2022-10-18T20:06:14.419Z,13.70
2022-10-18T20:11:11.751Z,12.90
2022-10-18T20:13:38.535Z,13.00
2022-10-18T20:16:07.736Z,12.70
2022-10-18T20:18:34.840Z,12.80
2022-10-18T20:21:05.886Z,12.90
2022-10-18T20:23:34.526Z,12.70
2022-10-18T20:26:03.919Z,12.40
2022-10-18T20:28:31.068Z,12.40
2022-10-18T20:31:17.953Z,12.70
2022-10-18T20:33:46.367Z,12.30
2022-10-18T20:36:18.059Z,12.30
2022-10-18T20:38:46.653Z,12.30
2022-10-18T20:41:23.103Z,12.30
2022-10-18T20:43:57.370Z,12.20
2022-10-18T20:46:24.926Z,12.20
2022-10-18T20:48:52.925Z,12.30
2022-10-18T20:51:19.656Z,12.20
2022-10-18T20:53:46.977Z,12.60
2022-10-18T20:56:22.274Z,12.10
2022-10-18T20:58:51.575Z,11.80
2022-10-18T21:01:30.976Z,11.70
2022-10-18T21:04:00.287Z,11.60
2022-10-18T21:06:32.633Z,11.50
2022-10-18T21:09:01.635Z,11.30
2022-10-18T21:11:29.608Z,11.70
2022-10-18T21:14:02.758Z,11.50
2022-10-18T21:16:31.217Z,11.70
2022-10-18T21:19:10.156Z,11.50
2022-10-18T21:21:37.017Z,11.40
2022-10-18T21:24:07.092Z,11.90
2022-10-18T21:26:35.175Z,11.40
2022-10-18T21:29:02.249Z,12.00
2022-10-18T21:31:31.202Z,11.10
2022-10-18T21:34:00.084Z,11.60
2022-10-18T21:36:30.821Z,10.80
2022-10-18T21:38:57.606Z,11.00
2022-10-18T21:41:24.792Z,10.90
2022-10-18T21:43:53.442Z,11.00
2022-10-18T21:46:22.091Z,10.90
2022-10-18T21:48:51.350Z,11.20
2022-10-18T21:51:20.108Z,11.20
2022-10-18T21:53:48.858Z,11.00
2022-10-18T21:56:24.160Z,11.10
2022-10-18T21:58:50.863Z,11.10
2022-10-18T22:01:24.377Z,11.30
2022-10-18T22:03:53.094Z,11.50
2022-10-18T22:06:20.407Z,11.00
2022-10-18T22:08:53.145Z,10.70
2022-10-18T22:11:22.944Z,10.90
2022-10-18T22:13:50.264Z,10.80
2022-10-18T22:16:17.100Z,10.60
2022-10-18T22:18:45.361Z,11.20
2022-10-18T22:21:13.843Z,11.40
2022-10-18T22:23:49.201Z,11.10
2022-10-18T22:26:32.391Z,11.30
2022-10-18T22:29:01.854Z,11.30
2022-10-18T22:31:31.352Z,11.00
2022-10-18T22:34:06.957Z,11.30
2022-10-18T22:36:34.908Z,11.70
2022-10-18T22:39:02.166Z,11.30
2022-10-18T22:41:28.862Z,11.30
2022-10-18T22:43:57.375Z,11.20
2022-10-18T22:46:26.514Z,11.80
2022-10-18T22:48:53.254Z,11.50
2022-10-18T22:51:20.211Z,11.50
2022-10-18T22:53:47.062Z,11.30
2022-10-18T22:56:16.776Z,11.20
2022-10-18T22:58:43.730Z,11.50
2022-10-18T23:01:16.556Z,11.20
2022-10-18T23:03:43.516Z,11.50
2022-10-18T23:06:26.130Z,11.40
2022-10-18T23:08:54.397Z,11.50
2022-10-18T23:11:21.630Z,11.40
2022-10-18T23:13:48.653Z,11.80
2022-10-18T23:16:16.401Z,11.50
2022-10-18T23:18:43.188Z,11.30
2022-10-18T23:21:12.560Z,11.40
2022-10-18T23:23:41.539Z,11.30
2022-10-18T23:26:11.745Z,11.40
2022-10-18T23:28:40.746Z,11.40
2022-10-18T23:31:09.055Z,11.30
2022-10-18T23:33:36.183Z,11.40
2022-10-18T23:36:03.294Z,11.50
2022-10-18T23:38:31.072Z,11.50
2022-10-18T23:40:58.101Z,11.40
2022-10-18T23:43:25.366Z,11.40
2022-10-18T23:45:52.270Z,11.50
2022-10-18T23:48:19.076Z,11.50
2022-10-18T23:50:45.986Z,11.40
2022-10-18T23:53:12.803Z,11.50
2022-10-18T23:55:39.537Z,11.50
2022-10-18T23:58:06.244Z,11.50
